Monterey, CA

8:14 PM PDT on May 06, 2015 (GMT -0700)
Monte Vista | | Change Station
CLOSE
Current Station
Personal Weather Station
Location: Monterey, CA
Elevation: 466 ft
Nearby Weather Stations

Elev 466 ft 36.58 °N, 121.91 °W | Updated 2 minutes ago

Scattered Clouds
Scattered Clouds
50.7 °F
Feels Like 50.7 °F
N
2.0
Wind Variable Wind from WSW
Gusts 6.0 mph

Today
High -- | Low -- °F
--% Chance of Precip.
Yesterday
High -- | Low -- °F
Precip. -- in
6:08 AM 8:00 PM
Waning Gibbous, 91% visible
Pressure 29.93 in
Visibility 8.0 miles
Clouds Scattered Clouds 1700 ft
Dew Point 45 °F
Humidity 81%
Rainfall 0.00 in
Snow Depth Not available.
UV 0 out of 12
Pollen 6.60 out of 12
Air Quality Not available.
Flu Activity Sporadic
METAR KMRY 070254Z 22010KT 8SM SCT017 12/07 A2989 RMK AO2 SLP133 T01170067 55000

More Conditions Fewer Conditions

Pressure 29.93 in
Visibility 8.0 miles
Clouds Scattered Clouds 1700 ft
Dew Point 45 °F
Humidity 81%
Rainfall 0.00 in
Snow Depth Not available.
UV 0 out of 12
Pollen 6.60 out of 12
Air Quality Not available.
Flu Activity Sporadic
METAR KMRY 070254Z 22010KT 8SM SCT017 12/07 A2989 RMK AO2 SLP133 T01170067 55000

More Conditions Fewer Conditions

10-Day Weather Forecast

Almanac

Astronomy

May. 06, 2015 Rise Set
Actual Time
Civil Twilight
Nautical Twilight
Astronomical Twilight
Moon
Length of Visible Light
Length of Day
Tomorrow will be .
, % of the Moon is Illuminated

Today's Extremes

State Highs State Lows

Community

WunderPhotos

Upload Photos

1,819,100 photos uploaded!

WunderBlogs® & News

Nearby

Air Quality

  Air Quality AQ Index Pollutant
Not available.

Snow Depth

Station Depth Elevation

Earthquake Activity

City Distance Mag. Time & Date
Minimum magnitude displayed is 2.5.

Coastal Water Temperatures

Place Temperature

Stations

Nearby Weather Stations

Station Location Temp. Windchill Dew Point Humidity Wind Precip. Elev Updated Type